createdAt,value
2023-01-18T00:01:19.464Z,75.30
2023-01-18T00:03:46.789Z,75.30
2023-01-18T00:06:13.923Z,75.30
2023-01-18T00:08:42.538Z,75.30
2023-01-18T00:11:15.552Z,75.30
2023-01-18T00:13:43.467Z,75.60
2023-01-18T00:16:17.494Z,75.50
2023-01-18T00:18:50.851Z,75.80
2023-01-18T00:21:17.654Z,75.70
2023-01-18T00:23:44.418Z,75.80
2023-01-18T00:26:12.755Z,75.80
2023-01-18T00:28:40.631Z,75.90
2023-01-18T00:31:20.226Z,76.00
2023-01-18T00:33:49.277Z,76.30
2023-01-18T00:36:17.270Z,76.10
2023-01-18T00:38:51.389Z,76.20
2023-01-18T00:41:19.487Z,76.20
2023-01-18T00:43:46.523Z,76.20
2023-01-18T00:46:18.110Z,76.20
2023-01-18T00:48:45.672Z,76.40
2023-01-18T00:51:17.000Z,76.20
2023-01-18T00:53:44.683Z,76.20
2023-01-18T00:56:16.338Z,76.10
2023-01-18T00:58:43.642Z,76.10
2023-01-18T01:01:11.918Z,75.90
2023-01-18T01:03:58.182Z,75.90
2023-01-18T01:06:45.869Z,75.70
2023-01-18T01:09:20.941Z,75.90
2023-01-18T01:12:08.217Z,75.80
2023-01-18T01:14:59.175Z,75.50
2023-01-18T01:17:46.837Z,75.60
2023-01-18T01:20:32.161Z,75.60
2023-01-18T01:23:38.029Z,75.60
2023-01-18T01:26:10.937Z,76.00
2023-01-18T01:28:44.787Z,75.70
2023-01-18T01:31:17.019Z,76.00
2023-01-18T01:33:45.587Z,76.00
2023-01-18T01:36:17.610Z,75.70
2023-01-18T01:38:44.816Z,75.90
2023-01-18T01:41:16.789Z,75.90
2023-01-18T01:43:50.012Z,76.20
2023-01-18T01:46:27.935Z,76.20
2023-01-18T01:49:07.814Z,76.40
2023-01-18T01:51:39.599Z,76.30
2023-01-18T01:54:15.108Z,76.20
2023-01-18T01:56:46.228Z,76.30
2023-01-18T01:59:15.207Z,76.20
2023-01-18T02:01:43.927Z,76.30
2023-01-18T02:04:12.268Z,76.30
2023-01-18T02:06:40.293Z,76.40
2023-01-18T02:13:18.247Z,76.80
2023-01-18T02:15:58.639Z,76.20
2023-01-18T02:18:44.073Z,76.30
2023-01-18T02:21:23.585Z,76.30
2023-01-18T02:24:39.448Z,76.30
2023-01-18T02:27:35.371Z,76.50
2023-01-18T02:30:12.789Z,76.20
2023-01-18T02:32:52.171Z,76.20
2023-01-18T02:35:50.398Z,76.20
2023-01-18T02:38:25.149Z,76.20
2023-01-18T02:41:48.513Z,76.20
2023-01-18T02:44:42.551Z,76.40
2023-01-18T02:47:10.298Z,76.10
2023-01-18T02:49:37.095Z,76.10
2023-01-18T02:52:06.853Z,76.00
2023-01-18T02:54:39.791Z,76.10
2023-01-18T02:57:15.173Z,76.20
2023-01-18T02:59:54.855Z,76.30
2023-01-18T03:02:26.312Z,76.40
2023-01-18T03:04:55.556Z,76.20
2023-01-18T03:07:53.328Z,76.00
2023-01-18T03:10:22.909Z,76.40
2023-01-18T03:13:23.438Z,76.20
2023-01-18T03:16:04.146Z,76.60
2023-01-18T03:19:00.517Z,76.20
2023-01-18T03:21:44.396Z,76.50
2023-01-18T03:24:13.286Z,76.50
2023-01-18T03:26:49.121Z,76.30
2023-01-18T03:29:38.966Z,76.30
2023-01-18T03:32:35.508Z,76.30
2023-01-18T03:35:16.766Z,76.30
2023-01-18T03:37:47.428Z,76.30
2023-01-18T03:40:20.944Z,76.10
2023-01-18T03:42:59.585Z,76.20
2023-01-18T03:46:05.353Z,76.20
2023-01-18T03:48:33.413Z,76.40
2023-01-18T03:51:34.531Z,76.10
2023-01-18T03:54:15.317Z,76.20
2023-01-18T03:57:00.706Z,76.10
2023-01-18T03:59:35.114Z,74.90
2023-01-18T04:02:05.521Z,76.20
2023-01-18T04:04:32.651Z,76.10
2023-01-18T04:06:59.696Z,76.00
2023-01-18T04:09:27.316Z,76.00
2023-01-18T04:11:54.204Z,76.00
2023-01-18T04:14:21.129Z,76.00
2023-01-18T04:16:47.882Z,75.90
2023-01-18T04:19:14.588Z,75.80
2023-01-18T04:21:41.507Z,75.70
2023-01-18T04:24:08.643Z,75.50
2023-01-18T04:26:35.495Z,75.40
2023-01-18T04:29:02.804Z,75.40
2023-01-18T04:31:30.381Z,75.30
2023-01-18T04:33:57.162Z,75.10
2023-01-18T04:36:23.940Z,75.00
2023-01-18T04:38:54.884Z,74.70
2023-01-18T04:41:22.650Z,74.70
2023-01-18T04:43:49.651Z,74.60
2023-01-18T04:46:16.621Z,74.50
2023-01-18T04:48:43.416Z,74.40
2023-01-18T04:51:14.591Z,74.30
2023-01-18T04:53:44.029Z,74.30
2023-01-18T04:56:11.957Z,74.40
2023-01-18T04:58:38.796Z,74.40
2023-01-18T05:01:09.054Z,74.20
2023-01-18T05:03:38.314Z,74.00
2023-01-18T05:06:08.321Z,74.00
2023-01-18T05:08:35.601Z,73.80
2023-01-18T05:11:07.846Z,73.80
2023-01-18T05:13:34.634Z,73.70
2023-01-18T05:16:04.496Z,73.60
2023-01-18T05:18:33.256Z,73.50
2023-01-18T05:21:00.281Z,73.40
2023-01-18T05:23:27.034Z,73.50
2023-01-18T05:25:59.475Z,73.40
2023-01-18T05:28:28.479Z,73.40
2023-01-18T05:30:56.080Z,73.40
2023-01-18T05:33:23.335Z,73.30
2023-01-18T05:35:55.469Z,73.20
2023-01-18T05:38:24.302Z,73.30
2023-01-18T05:40:54.755Z,73.30
2023-01-18T05:43:24.215Z,73.00
2023-01-18T05:45:51.484Z,72.80
2023-01-18T05:48:20.001Z,72.60
2023-01-18T05:50:48.787Z,72.30
2023-01-18T05:53:20.595Z,72.00
2023-01-18T05:56:00.363Z,71.80
2023-01-18T05:58:28.777Z,71.50
2023-01-18T06:00:56.014Z,71.30
2023-01-18T06:03:25.186Z,71.30
2023-01-18T06:05:53.053Z,71.10
2023-01-18T06:08:20.806Z,71.00
2023-01-18T06:10:55.321Z,71.60
2023-01-18T06:13:23.568Z,71.50
2023-01-18T06:15:51.874Z,70.70
2023-01-18T06:18:18.622Z,70.60
2023-01-18T06:20:45.331Z,70.80
2023-01-18T06:23:12.401Z,70.60
2023-01-18T06:25:39.208Z,70.70
2023-01-18T06:28:06.430Z,70.70
2023-01-18T06:30:34.379Z,70.70
2023-01-18T06:33:06.597Z,70.60
2023-01-18T06:35:34.512Z,70.60
2023-01-18T06:38:02.282Z,70.50
2023-01-18T06:40:29.132Z,70.50
2023-01-18T06:42:56.419Z,70.30
2023-01-18T06:45:25.407Z,70.40
2023-01-18T06:47:53.157Z,70.40
2023-01-18T06:50:20.277Z,70.30
2023-01-18T06:52:47.109Z,70.10
2023-01-18T06:55:15.463Z,70.10
2023-01-18T06:57:42.441Z,70.20
2023-01-18T07:00:12.084Z,70.30
2023-01-18T07:02:39.108Z,70.30
2023-01-18T07:05:06.694Z,70.40
2023-01-18T07:07:33.588Z,70.30
2023-01-18T07:10:00.382Z,70.20
2023-01-18T07:12:27.153Z,70.20
2023-01-18T07:14:53.919Z,70.20
2023-01-18T07:17:20.738Z,70.20
2023-01-18T07:19:47.455Z,70.00
2023-01-18T07:22:14.461Z,69.90
2023-01-18T07:24:41.247Z,69.80
2023-01-18T07:27:08.051Z,69.80
2023-01-18T07:29:35.274Z,69.80
2023-01-18T07:32:02.540Z,69.90
2023-01-18T07:34:29.368Z,69.90
2023-01-18T07:36:56.117Z,69.90
2023-01-18T07:39:22.941Z,69.90
2023-01-18T07:41:49.666Z,69.90
2023-01-18T07:44:16.531Z,69.80
2023-01-18T07:46:43.419Z,69.70
2023-01-18T07:49:10.216Z,69.70
2023-01-18T07:51:37.051Z,69.80
2023-01-18T07:54:03.860Z,69.80
2023-01-18T07:56:30.712Z,69.80
2023-01-18T07:58:57.473Z,69.80
2023-01-18T08:01:24.551Z,69.90
2023-01-18T08:03:53.545Z,70.00
2023-01-18T08:06:26.447Z,70.00
2023-01-18T08:08:55.995Z,70.00
2023-01-18T08:11:23.044Z,70.00
2023-01-18T08:13:50.665Z,70.00
2023-01-18T08:16:18.268Z,70.00
2023-01-18T08:18:45.808Z,70.10
2023-01-18T08:21:13.981Z,70.00
2023-01-18T08:23:41.340Z,70.00
2023-01-18T08:26:10.490Z,70.00
2023-01-18T08:28:37.328Z,70.00
2023-01-18T08:31:19.662Z,69.80
2023-01-18T08:33:49.069Z,69.60
2023-01-18T08:36:23.304Z,69.60
2023-01-18T08:38:53.537Z,69.50
2023-01-18T08:41:21.088Z,69.30
2023-01-18T08:43:52.437Z,69.40
2023-01-18T08:46:19.523Z,69.40
2023-01-18T08:48:57.638Z,69.40
2023-01-18T08:51:26.156Z,69.30
2023-01-18T08:53:57.222Z,69.40
2023-01-18T08:56:24.935Z,69.40
2023-01-18T08:58:52.261Z,69.30
2023-01-18T09:01:19.189Z,69.30
2023-01-18T09:03:47.946Z,69.40
2023-01-18T09:06:16.728Z,69.30
2023-01-18T09:08:43.615Z,69.30
2023-01-18T09:11:10.809Z,69.00
2023-01-18T09:13:54.623Z,69.00
2023-01-18T09:16:26.458Z,68.90
2023-01-18T09:18:55.359Z,68.90
2023-01-18T09:21:22.216Z,68.70
2023-01-18T09:23:50.694Z,68.70
2023-01-18T09:26:20.594Z,68.60
2023-01-18T09:28:52.702Z,68.40
2023-01-18T09:31:22.659Z,68.30
2023-01-18T09:33:53.721Z,68.30
2023-01-18T09:36:26.432Z,68.30
2023-01-18T09:38:54.927Z,68.10
2023-01-18T09:41:39.656Z,68.10
2023-01-18T09:44:35.960Z,67.90
2023-01-18T09:47:27.256Z,67.80
2023-01-18T09:49:58.919Z,67.80
2023-01-18T09:52:56.168Z,67.90
2023-01-18T09:55:27.687Z,67.80
2023-01-18T09:58:16.799Z,68.10
2023-01-18T10:00:47.674Z,67.70
2023-01-18T10:03:32.823Z,67.70
2023-01-18T10:06:15.440Z,67.30
2023-01-18T10:09:07.124Z,67.40
2023-01-18T10:12:00.030Z,67.20
2023-01-18T10:14:48.479Z,67.10
2023-01-18T10:17:24.826Z,66.90
2023-01-18T10:19:51.725Z,66.90
2023-01-18T10:22:48.018Z,66.70
2023-01-18T10:25:36.298Z,66.70
2023-01-18T10:28:50.834Z,66.80
2023-01-18T10:31:55.708Z,66.40
2023-01-18T10:34:24.369Z,66.40
2023-01-18T10:37:43.516Z,66.50
2023-01-18T10:40:13.514Z,66.20
2023-01-18T10:42:49.175Z,66.20
2023-01-18T10:45:29.298Z,66.30
2023-01-18T10:47:59.707Z,66.00
2023-01-18T10:50:44.443Z,65.90
2023-01-18T10:53:37.574Z,66.00
2023-01-18T10:56:18.366Z,66.20
2023-01-18T10:58:51.191Z,65.80
2023-01-18T11:01:25.675Z,65.90
2023-01-18T11:04:16.683Z,65.80
2023-01-18T11:07:02.725Z,65.80
2023-01-18T11:09:49.450Z,65.70
2023-01-18T11:12:44.314Z,65.90
2023-01-18T11:15:14.215Z,65.80
2023-01-18T11:18:00.424Z,66.00
2023-01-18T11:20:50.020Z,65.90
2023-01-18T11:23:36.239Z,65.90
2023-01-18T11:26:09.109Z,66.10
2023-01-18T11:28:45.051Z,66.30
2023-01-18T11:31:17.505Z,66.40
2023-01-18T11:34:02.780Z,66.50
2023-01-18T11:36:41.404Z,66.30
2023-01-18T11:39:24.702Z,66.40
2023-01-18T11:42:10.117Z,66.20
2023-01-18T11:44:56.209Z,66.40
2023-01-18T11:47:57.382Z,66.20
2023-01-18T11:50:54.020Z,66.00
2023-01-18T11:54:02.821Z,66.00
2023-01-18T11:56:47.284Z,66.00
2023-01-18T11:59:34.067Z,66.00
2023-01-18T12:02:45.431Z,66.00
2023-01-18T12:05:45.052Z,65.80
2023-01-18T12:08:46.433Z,65.70
2023-01-18T12:11:45.415Z,65.80
2023-01-18T12:14:50.231Z,66.00
2023-01-18T12:18:01.299Z,65.80
2023-01-18T12:21:21.532Z,65.50
2023-01-18T12:24:10.298Z,65.50
2023-01-18T12:26:59.557Z,65.50
2023-01-18T12:30:15.847Z,65.70
2023-01-18T12:33:21.459Z,65.70
2023-01-18T12:36:37.099Z,65.50
2023-01-18T12:39:25.422Z,65.70
2023-01-18T12:42:55.984Z,65.50
2023-01-18T12:45:45.178Z,65.30
2023-01-18T12:48:24.691Z,65.70
2023-01-18T12:50:51.894Z,65.70
2023-01-18T12:53:55.791Z,65.70
2023-01-18T12:56:45.288Z,65.50
2023-01-18T12:59:23.253Z,65.70
2023-01-18T13:02:00.374Z,65.70
2023-01-18T13:04:36.186Z,66.50
2023-01-18T13:07:11.130Z,65.80
2023-01-18T13:09:44.123Z,65.70
2023-01-18T13:12:13.426Z,65.40
2023-01-18T13:15:07.875Z,65.30
2023-01-18T13:18:05.644Z,65.30
2023-01-18T13:21:08.093Z,65.10
2023-01-18T13:23:56.229Z,65.30
2023-01-18T13:26:30.502Z,65.40
2023-01-18T13:29:29.129Z,65.20
2023-01-18T13:31:57.939Z,65.00
2023-01-18T13:34:47.688Z,65.20
2023-01-18T13:37:39.910Z,65.20
2023-01-18T13:40:19.585Z,65.00
2023-01-18T13:42:46.535Z,65.20
2023-01-18T13:45:24.781Z,65.00
2023-01-18T13:48:03.341Z,65.10
2023-01-18T13:50:39.250Z,65.20
2023-01-18T13:53:14.818Z,65.20
2023-01-18T13:55:54.956Z,64.80
2023-01-18T13:58:31.257Z,65.10
2023-01-18T14:01:03.456Z,65.10
2023-01-18T14:03:36.838Z,65.00
2023-01-18T14:06:14.965Z,64.80
2023-01-18T14:08:52.556Z,65.00
2023-01-18T14:11:31.284Z,65.10
2023-01-18T14:13:57.965Z,65.20
2023-01-18T14:16:31.692Z,65.10
2023-01-18T14:19:17.047Z,65.20
2023-01-18T14:22:15.052Z,65.00
2023-01-18T14:25:12.957Z,65.00
2023-01-18T14:27:47.011Z,65.00
2023-01-18T14:30:25.691Z,65.00
2023-01-18T14:33:04.807Z,64.70
2023-01-18T14:35:31.657Z,65.00
2023-01-18T14:38:18.721Z,65.10
2023-01-18T14:40:57.132Z,65.30
2023-01-18T14:43:28.345Z,65.30
2023-01-18T14:46:15.823Z,65.50
2023-01-18T14:48:53.798Z,65.30
2023-01-18T14:51:28.462Z,65.30
2023-01-18T14:53:58.155Z,65.20
2023-01-18T14:56:28.457Z,65.20
2023-01-18T14:59:03.207Z,65.20
2023-01-18T15:01:40.036Z,65.20
2023-01-18T15:04:21.485Z,65.00
2023-01-18T15:07:01.049Z,64.80
2023-01-18T15:09:31.899Z,64.80
2023-01-18T15:12:04.551Z,64.80
2023-01-18T15:14:36.549Z,64.80
2023-01-18T15:17:10.048Z,64.90
2023-01-18T15:19:44.146Z,65.00
2023-01-18T15:22:13.034Z,64.80
2023-01-18T15:24:44.068Z,64.60
2023-01-18T15:27:18.095Z,64.80
2023-01-18T15:29:51.193Z,64.70
2023-01-18T15:32:22.582Z,64.30
2023-01-18T15:34:52.303Z,64.80
2023-01-18T15:37:33.108Z,64.80
2023-01-18T15:40:21.850Z,64.60
2023-01-18T15:43:04.775Z,64.60
2023-01-18T15:45:39.289Z,64.40
2023-01-18T15:48:14.475Z,64.30
2023-01-18T15:50:47.462Z,64.20
2023-01-18T15:53:35.740Z,64.30
2023-01-18T15:56:17.115Z,64.30
2023-01-18T15:58:55.590Z,64.50
2023-01-18T16:01:29.225Z,64.30
2023-01-18T16:04:00.713Z,64.00
2023-01-18T16:06:29.645Z,63.90
2023-01-18T16:09:19.652Z,63.90
2023-01-18T16:11:56.780Z,63.80
2023-01-18T16:14:24.335Z,63.50
2023-01-18T16:16:53.446Z,63.50
2023-01-18T16:19:22.485Z,63.40
2023-01-18T16:22:28.023Z,63.70
2023-01-18T16:25:08.492Z,63.60
2023-01-18T16:27:52.569Z,63.60
2023-01-18T16:30:33.936Z,63.50
2023-01-18T16:33:15.778Z,63.50
2023-01-18T16:35:42.828Z,63.30
2023-01-18T16:38:20.078Z,63.30
2023-01-18T16:40:50.245Z,63.40
2023-01-18T16:43:24.083Z,63.40
2023-01-18T16:45:54.403Z,63.40
2023-01-18T16:48:27.321Z,63.40
2023-01-18T16:50:56.067Z,63.50
2023-01-18T16:53:23.106Z,63.60
2023-01-18T16:55:49.904Z,63.60
2023-01-18T16:58:21.473Z,63.60
2023-01-18T17:01:00.658Z,63.60
2023-01-18T17:03:27.814Z,63.40
2023-01-18T17:05:55.432Z,63.30
2023-01-18T17:08:22.437Z,63.30
2023-01-18T17:10:51.987Z,63.10
2023-01-18T17:13:18.901Z,63.30
2023-01-18T17:15:45.852Z,63.30
2023-01-18T17:18:26.970Z,63.40
2023-01-18T17:20:55.167Z,63.30
2023-01-18T17:23:22.977Z,63.40
2023-01-18T17:25:49.993Z,63.10
2023-01-18T17:28:19.305Z,63.30
2023-01-18T17:30:49.333Z,62.90
2023-01-18T17:33:22.114Z,63.00
2023-01-18T17:35:50.872Z,63.10
2023-01-18T17:38:24.368Z,63.30
2023-01-18T17:40:52.009Z,63.40
2023-01-18T17:43:32.016Z,63.40
2023-01-18T17:46:02.389Z,63.40
2023-01-18T17:48:29.743Z,63.60
2023-01-18T17:50:56.621Z,63.60
2023-01-18T17:53:23.367Z,63.70
2023-01-18T17:55:50.364Z,63.70
2023-01-18T17:58:17.123Z,63.80
2023-01-18T18:00:44.687Z,63.90
2023-01-18T18:03:11.529Z,63.80
2023-01-18T18:05:38.355Z,63.80
2023-01-18T18:08:05.424Z,63.80
2023-01-18T18:10:32.253Z,63.80
2023-01-18T18:12:59.698Z,63.80
2023-01-18T18:15:27.302Z,63.80
2023-01-18T18:17:54.031Z,63.90
2023-01-18T18:20:22.808Z,63.90
2023-01-18T18:22:49.978Z,63.90
2023-01-18T18:25:16.765Z,64.00
2023-01-18T18:27:46.425Z,63.90
2023-01-18T18:30:15.595Z,64.00
2023-01-18T18:32:42.552Z,64.10
2023-01-18T18:35:23.774Z,64.00
2023-01-18T18:37:53.533Z,63.90
2023-01-18T18:40:20.350Z,63.90
2023-01-18T18:43:00.677Z,63.90
2023-01-18T18:45:33.873Z,63.70
2023-01-18T18:48:01.324Z,63.90
2023-01-18T18:50:29.258Z,64.00
2023-01-18T18:52:56.523Z,64.00
2023-01-18T18:55:23.791Z,64.10
2023-01-18T18:57:50.694Z,64.10
2023-01-18T19:00:18.115Z,64.10
2023-01-18T19:02:46.314Z,64.20
2023-01-18T19:05:13.082Z,64.20
2023-01-18T19:07:40.580Z,64.00
2023-01-18T19:10:07.865Z,64.20
2023-01-18T19:12:34.736Z,64.20
2023-01-18T19:15:01.663Z,64.20
2023-01-18T19:17:31.337Z,65.00
2023-01-18T19:19:59.051Z,64.30
2023-01-18T19:22:26.485Z,64.30
2023-01-18T19:24:53.277Z,64.40
2023-01-18T19:27:21.295Z,64.40
2023-01-18T19:29:48.666Z,64.40
2023-01-18T19:32:15.956Z,64.50
2023-01-18T19:34:42.708Z,64.50
2023-01-18T19:37:09.464Z,64.60
2023-01-18T19:39:36.420Z,64.60
2023-01-18T19:42:03.319Z,64.70
2023-01-18T19:44:30.559Z,64.80
2023-01-18T19:47:00.578Z,64.70
2023-01-18T19:49:27.359Z,64.80
2023-01-18T19:51:54.858Z,64.90
2023-01-18T19:54:22.398Z,65.00
2023-01-18T19:56:49.549Z,65.00
2023-01-18T19:59:16.502Z,65.30
2023-01-18T20:01:43.649Z,65.20
2023-01-18T20:04:12.859Z,65.30
2023-01-18T20:06:39.910Z,65.40
2023-01-18T20:09:17.665Z,65.40
2023-01-18T20:11:45.366Z,65.40
2023-01-18T20:14:13.083Z,65.50
2023-01-18T20:16:40.206Z,65.50
2023-01-18T20:19:07.087Z,65.60
2023-01-18T20:21:33.896Z,65.60
2023-01-18T20:24:01.010Z,65.60
2023-01-18T20:26:36.465Z,65.60
2023-01-18T20:29:08.568Z,65.60
2023-01-18T20:31:38.486Z,65.70
2023-01-18T20:34:06.620Z,65.80
2023-01-18T20:36:37.419Z,65.80
2023-01-18T20:39:06.198Z,65.90
2023-01-18T20:41:32.940Z,66.00
2023-01-18T20:43:59.895Z,66.00
2023-01-18T20:46:26.689Z,66.00
2023-01-18T20:48:53.658Z,66.10
2023-01-18T20:51:20.842Z,66.20
2023-01-18T20:53:47.581Z,66.20
2023-01-18T20:56:28.377Z,66.30
2023-01-18T20:58:56.209Z,66.30
2023-01-18T21:01:23.376Z,66.50
2023-01-18T21:03:55.470Z,66.60
2023-01-18T21:06:22.737Z,66.60
2023-01-18T21:08:53.314Z,66.60
2023-01-18T21:11:23.104Z,66.80
2023-01-18T21:13:50.324Z,66.80
2023-01-18T21:16:17.842Z,66.90
2023-01-18T21:18:44.911Z,66.90
2023-01-18T21:21:12.727Z,67.00
2023-01-18T21:23:39.788Z,67.00
2023-01-18T21:26:12.063Z,67.10
2023-01-18T21:28:39.438Z,67.20
2023-01-18T21:31:06.925Z,67.30
2023-01-18T21:33:35.431Z,67.40
2023-01-18T21:36:08.686Z,67.40
2023-01-18T21:38:35.979Z,67.50
2023-01-18T21:41:21.756Z,67.50
2023-01-18T21:44:14.928Z,67.50
2023-01-18T21:46:46.478Z,67.60
2023-01-18T21:49:47.449Z,67.70
2023-01-18T21:52:39.212Z,67.80
2023-01-18T21:55:06.126Z,67.80
2023-01-18T21:57:32.907Z,67.90
2023-01-18T21:59:59.717Z,68.00
2023-01-18T22:02:26.661Z,68.00
2023-01-18T22:05:19.812Z,68.10
2023-01-18T22:07:46.622Z,68.50
2023-01-18T22:10:13.528Z,68.20
2023-01-18T22:12:40.283Z,68.20
2023-01-18T22:15:07.574Z,68.30
2023-01-18T22:17:34.381Z,68.50
2023-01-18T22:20:01.851Z,68.50
2023-01-18T22:22:28.931Z,68.70
2023-01-18T22:24:56.993Z,68.70
2023-01-18T22:27:23.727Z,68.80
2023-01-18T22:29:50.675Z,68.80
2023-01-18T22:32:17.416Z,68.90
2023-01-18T22:34:44.104Z,68.90
2023-01-18T22:37:11.550Z,69.70
2023-01-18T22:39:38.251Z,69.10
2023-01-18T22:42:05.298Z,69.20
2023-01-18T22:44:32.875Z,69.20
2023-01-18T22:46:59.755Z,69.20
2023-01-18T22:49:27.618Z,69.60
2023-01-18T22:51:54.444Z,69.20
2023-01-18T22:54:22.857Z,69.30
2023-01-18T22:56:49.715Z,69.30
2023-01-18T22:59:16.558Z,69.40
2023-01-18T23:01:43.471Z,69.40
2023-01-18T23:04:10.383Z,69.40
2023-01-18T23:06:46.579Z,69.50
2023-01-18T23:09:16.223Z,69.40
2023-01-18T23:11:44.787Z,69.50
2023-01-18T23:14:30.195Z,69.50
2023-01-18T23:17:15.445Z,69.50
2023-01-18T23:19:42.220Z,69.50
2023-01-18T23:22:09.126Z,69.50
2023-01-18T23:24:37.508Z,69.10
2023-01-18T23:27:07.879Z,69.70
2023-01-18T23:29:34.691Z,69.70
2023-01-18T23:32:01.756Z,69.70
2023-01-18T23:34:28.591Z,69.70
2023-01-18T23:36:55.598Z,69.70
2023-01-18T23:39:41.300Z,69.80
2023-01-18T23:42:27.167Z,69.80
2023-01-18T23:45:12.488Z,69.70
2023-01-18T23:47:57.781Z,69.80
2023-01-18T23:50:43.342Z,69.80
2023-01-18T23:53:32.285Z,69.80
2023-01-18T23:56:00.109Z,70.00
2023-01-18T23:58:27.564Z,70.00
